sensor_id;sensor_type;location;lat;lon;timestamp;P1;durP1;ratioP1;P2;durP2;ratioP2
49548;SDS011;35450;44.518;7.466;2023-03-16T00:01:48;7.38;;;3.42;;
49548;SDS011;35450;44.518;7.466;2023-03-16T00:04:52;7.45;;;3.92;;
49548;SDS011;35450;44.518;7.466;2023-03-16T00:07:57;6.85;;;3.83;;
49548;SDS011;35450;44.518;7.466;2023-03-16T00:11:01;5.85;;;1.75;;
49548;SDS011;35450;44.518;7.466;2023-03-16T00:14:05;13.60;;;1.92;;
49548;SDS011;35450;44.518;7.466;2023-03-16T00:17:10;1.60;;;0.73;;
49548;SDS011;35450;44.518;7.466;2023-03-16T00:20:21;2.43;;;0.73;;
49548;SDS011;35450;44.518;7.466;2023-03-16T00:23:25;0.50;;;0.40;;
49548;SDS011;35450;44.518;7.466;2023-03-16T00:26:29;0.43;;;0.30;;
49548;SDS011;35450;44.518;7.466;2023-03-16T00:29:34;1.02;;;0.60;;
49548;SDS011;35450;44.518;7.466;2023-03-16T00:32:38;1.55;;;0.45;;
49548;SDS011;35450;44.518;7.466;2023-03-16T00:35:45;5.20;;;0.60;;
49548;SDS011;35450;44.518;7.466;2023-03-16T00:38:53;1.40;;;0.60;;
49548;SDS011;35450;44.518;7.466;2023-03-16T00:41:57;0.93;;;0.52;;
49548;SDS011;35450;44.518;7.466;2023-03-16T00:45:01;0.65;;;0.40;;
49548;SDS011;35450;44.518;7.466;2023-03-16T00:48:06;1.63;;;0.85;;
49548;SDS011;35450;44.518;7.466;2023-03-16T00:51:11;0.82;;;0.50;;
49548;SDS011;35450;44.518;7.466;2023-03-16T00:54:18;1.00;;;0.60;;
49548;SDS011;35450;44.518;7.466;2023-03-16T00:57:23;3.38;;;0.50;;
49548;SDS011;35450;44.518;7.466;2023-03-16T01:00:28;2.33;;;1.10;;
49548;SDS011;35450;44.518;7.466;2023-03-16T01:03:32;4.43;;;0.70;;
49548;SDS011;35450;44.518;7.466;2023-03-16T01:06:37;3.88;;;0.57;;
49548;SDS011;35450;44.518;7.466;2023-03-16T01:09:41;1.35;;;0.45;;
49548;SDS011;35450;44.518;7.466;2023-03-16T01:12:45;0.38;;;0.38;;
49548;SDS011;35450;44.518;7.466;2023-03-16T01:15:50;2.03;;;0.70;;
49548;SDS011;35450;44.518;7.466;2023-03-16T01:18:54;2.15;;;0.50;;
49548;SDS011;35450;44.518;7.466;2023-03-16T01:22:00;0.85;;;0.30;;
49548;SDS011;35450;44.518;7.466;2023-03-16T01:25:05;1.38;;;0.50;;
49548;SDS011;35450;44.518;7.466;2023-03-16T01:28:09;3.60;;;0.50;;
49548;SDS011;35450;44.518;7.466;2023-03-16T01:31:15;0.77;;;0.38;;
49548;SDS011;35450;44.518;7.466;2023-03-16T01:34:20;0.85;;;0.50;;
49548;SDS011;35450;44.518;7.466;2023-03-16T01:37:24;0.63;;;0.40;;
49548;SDS011;35450;44.518;7.466;2023-03-16T01:40:37;1.25;;;0.60;;
49548;SDS011;35450;44.518;7.466;2023-03-16T01:43:41;3.63;;;0.52;;
49548;SDS011;35450;44.518;7.466;2023-03-16T01:46:46;0.40;;;0.30;;
49548;SDS011;35450;44.518;7.466;2023-03-16T01:49:50;0.45;;;0.32;;
49548;SDS011;35450;44.518;7.466;2023-03-16T01:52:59;0.88;;;0.40;;
49548;SDS011;35450;44.518;7.466;2023-03-16T01:56:04;2.78;;;0.50;;
49548;SDS011;35450;44.518;7.466;2023-03-16T01:59:13;1.88;;;0.52;;
49548;SDS011;35450;44.518;7.466;2023-03-16T02:02:23;0.28;;;0.22;;
49548;SDS011;35450;44.518;7.466;2023-03-16T02:05:43;2.53;;;0.52;;
49548;SDS011;35450;44.518;7.466;2023-03-16T02:08:57;1.08;;;0.40;;
49548;SDS011;35450;44.518;7.466;2023-03-16T02:12:01;4.05;;;0.57;;
49548;SDS011;35450;44.518;7.466;2023-03-16T02:15:08;2.92;;;0.50;;
49548;SDS011;35450;44.518;7.466;2023-03-16T02:18:13;2.88;;;0.50;;
49548;SDS011;35450;44.518;7.466;2023-03-16T02:24:41;2.00;;;0.68;;
49548;SDS011;35450;44.518;7.466;2023-03-16T02:27:58;0.55;;;0.40;;
49548;SDS011;35450;44.518;7.466;2023-03-16T02:31:03;1.00;;;0.40;;
49548;SDS011;35450;44.518;7.466;2023-03-16T02:34:12;0.95;;;0.52;;
49548;SDS011;35450;44.518;7.466;2023-03-16T02:37:18;1.05;;;0.50;;
49548;SDS011;35450;44.518;7.466;2023-03-16T02:40:23;6.53;;;0.50;;
49548;SDS011;35450;44.518;7.466;2023-03-16T02:43:32;1.17;;;0.43;;
49548;SDS011;35450;44.518;7.466;2023-03-16T02:46:45;1.95;;;0.50;;
49548;SDS011;35450;44.518;7.466;2023-03-16T02:49:51;1.20;;;0.50;;
49548;SDS011;35450;44.518;7.466;2023-03-16T02:52:55;0.93;;;0.60;;
49548;SDS011;35450;44.518;7.466;2023-03-16T02:55:59;0.60;;;0.50;;
49548;SDS011;35450;44.518;7.466;2023-03-16T02:59:08;2.95;;;0.65;;
49548;SDS011;35450;44.518;7.466;2023-03-16T03:02:12;0.90;;;0.55;;
49548;SDS011;35450;44.518;7.466;2023-03-16T03:05:16;2.70;;;0.60;;
49548;SDS011;35450;44.518;7.466;2023-03-16T03:08:20;1.00;;;0.70;;
49548;SDS011;35450;44.518;7.466;2023-03-16T03:11:26;1.02;;;0.60;;
49548;SDS011;35450;44.518;7.466;2023-03-16T03:14:30;1.52;;;0.65;;
49548;SDS011;35450;44.518;7.466;2023-03-16T03:17:34;0.70;;;0.55;;
49548;SDS011;35450;44.518;7.466;2023-03-16T03:20:39;0.80;;;0.60;;
49548;SDS011;35450;44.518;7.466;2023-03-16T03:23:43;1.92;;;0.75;;
49548;SDS011;35450;44.518;7.466;2023-03-16T03:26:49;2.65;;;0.98;;
49548;SDS011;35450;44.518;7.466;2023-03-16T03:29:57;1.10;;;0.70;;
49548;SDS011;35450;44.518;7.466;2023-03-16T03:33:01;5.93;;;0.70;;
49548;SDS011;35450;44.518;7.466;2023-03-16T03:36:06;1.73;;;0.70;;
49548;SDS011;35450;44.518;7.466;2023-03-16T03:39:12;1.25;;;0.60;;
49548;SDS011;35450;44.518;7.466;2023-03-16T03:42:17;2.83;;;0.70;;
49548;SDS011;35450;44.518;7.466;2023-03-16T03:45:21;0.75;;;0.43;;
49548;SDS011;35450;44.518;7.466;2023-03-16T03:48:25;1.33;;;0.70;;
49548;SDS011;35450;44.518;7.466;2023-03-16T03:51:30;1.05;;;0.65;;
49548;SDS011;35450;44.518;7.466;2023-03-16T03:54:40;0.70;;;0.40;;
49548;SDS011;35450;44.518;7.466;2023-03-16T03:57:49;1.00;;;0.65;;
49548;SDS011;35450;44.518;7.466;2023-03-16T04:00:54;1.35;;;0.60;;
49548;SDS011;35450;44.518;7.466;2023-03-16T04:03:58;1.88;;;0.70;;
49548;SDS011;35450;44.518;7.466;2023-03-16T04:07:02;1.38;;;0.60;;
49548;SDS011;35450;44.518;7.466;2023-03-16T04:10:06;2.13;;;0.68;;
49548;SDS011;35450;44.518;7.466;2023-03-16T04:13:15;0.95;;;0.52;;
49548;SDS011;35450;44.518;7.466;2023-03-16T04:16:19;3.65;;;0.80;;
49548;SDS011;35450;44.518;7.466;2023-03-16T04:19:28;1.27;;;0.70;;
49548;SDS011;35450;44.518;7.466;2023-03-16T04:22:33;1.80;;;0.60;;
49548;SDS011;35450;44.518;7.466;2023-03-16T04:25:39;1.10;;;0.73;;
49548;SDS011;35450;44.518;7.466;2023-03-16T04:28:46;1.80;;;0.77;;
49548;SDS011;35450;44.518;7.466;2023-03-16T04:31:53;3.97;;;0.65;;
49548;SDS011;35450;44.518;7.466;2023-03-16T04:34:59;5.35;;;0.70;;
49548;SDS011;35450;44.518;7.466;2023-03-16T04:38:17;0.93;;;0.63;;
49548;SDS011;35450;44.518;7.466;2023-03-16T04:41:32;1.15;;;0.70;;
49548;SDS011;35450;44.518;7.466;2023-03-16T04:44:44;0.85;;;0.50;;
49548;SDS011;35450;44.518;7.466;2023-03-16T04:47:50;1.90;;;0.80;;
49548;SDS011;35450;44.518;7.466;2023-03-16T04:50:55;2.35;;;0.65;;
49548;SDS011;35450;44.518;7.466;2023-03-16T04:54:00;0.65;;;0.50;;
49548;SDS011;35450;44.518;7.466;2023-03-16T04:57:10;0.82;;;0.60;;
49548;SDS011;35450;44.518;7.466;2023-03-16T05:00:19;3.28;;;0.80;;
49548;SDS011;35450;44.518;7.466;2023-03-16T05:03:44;1.52;;;0.70;;
49548;SDS011;35450;44.518;7.466;2023-03-16T05:06:48;1.58;;;0.80;;
49548;SDS011;35450;44.518;7.466;2023-03-16T05:09:55;2.05;;;0.60;;
49548;SDS011;35450;44.518;7.466;2023-03-16T05:12:59;1.40;;;0.63;;
49548;SDS011;35450;44.518;7.466;2023-03-16T05:16:03;3.33;;;1.23;;
49548;SDS011;35450;44.518;7.466;2023-03-16T05:19:12;1.05;;;0.70;;
49548;SDS011;35450;44.518;7.466;2023-03-16T05:22:16;1.95;;;0.70;;
49548;SDS011;35450;44.518;7.466;2023-03-16T05:25:38;3.90;;;1.52;;
49548;SDS011;35450;44.518;7.466;2023-03-16T05:28:45;1.02;;;0.80;;
49548;SDS011;35450;44.518;7.466;2023-03-16T05:31:52;3.50;;;0.68;;
49548;SDS011;35450;44.518;7.466;2023-03-16T05:34:59;3.58;;;1.50;;
49548;SDS011;35450;44.518;7.466;2023-03-16T05:38:05;3.05;;;0.90;;
49548;SDS011;35450;44.518;7.466;2023-03-16T05:41:14;1.85;;;0.70;;
49548;SDS011;35450;44.518;7.466;2023-03-16T05:44:31;1.60;;;0.80;;
49548;SDS011;35450;44.518;7.466;2023-03-16T05:47:54;1.48;;;0.95;;
49548;SDS011;35450;44.518;7.466;2023-03-16T05:50:59;9.80;;;2.50;;
49548;SDS011;35450;44.518;7.466;2023-03-16T05:54:06;3.10;;;0.80;;
49548;SDS011;35450;44.518;7.466;2023-03-16T05:57:19;6.18;;;1.90;;
49548;SDS011;35450;44.518;7.466;2023-03-16T06:00:26;11.93;;;1.88;;
49548;SDS011;35450;44.518;7.466;2023-03-16T06:03:43;11.98;;;1.50;;
49548;SDS011;35450;44.518;7.466;2023-03-16T06:06:52;5.03;;;1.42;;
49548;SDS011;35450;44.518;7.466;2023-03-16T06:09:58;3.75;;;1.35;;
49548;SDS011;35450;44.518;7.466;2023-03-16T06:13:03;4.95;;;1.80;;
49548;SDS011;35450;44.518;7.466;2023-03-16T06:16:08;3.40;;;2.03;;
49548;SDS011;35450;44.518;7.466;2023-03-16T06:19:14;8.00;;;2.25;;
49548;SDS011;35450;44.518;7.466;2023-03-16T06:22:19;3.10;;;1.25;;
49548;SDS011;35450;44.518;7.466;2023-03-16T06:25:23;4.50;;;2.00;;
49548;SDS011;35450;44.518;7.466;2023-03-16T06:28:29;9.88;;;4.10;;
49548;SDS011;35450;44.518;7.466;2023-03-16T06:31:33;6.07;;;1.83;;
49548;SDS011;35450;44.518;7.466;2023-03-16T06:34:39;5.68;;;1.73;;
49548;SDS011;35450;44.518;7.466;2023-03-16T06:37:44;6.78;;;2.90;;
49548;SDS011;35450;44.518;7.466;2023-03-16T06:41:01;5.88;;;2.05;;
49548;SDS011;35450;44.518;7.466;2023-03-16T06:44:07;14.73;;;4.70;;
49548;SDS011;35450;44.518;7.466;2023-03-16T06:47:16;29.75;;;6.60;;
49548;SDS011;35450;44.518;7.466;2023-03-16T06:50:20;34.38;;;8.40;;
49548;SDS011;35450;44.518;7.466;2023-03-16T06:53:24;25.77;;;9.40;;
49548;SDS011;35450;44.518;7.466;2023-03-16T06:56:30;27.80;;;7.38;;
49548;SDS011;35450;44.518;7.466;2023-03-16T06:59:34;19.50;;;8.48;;
49548;SDS011;35450;44.518;7.466;2023-03-16T07:02:38;13.43;;;5.82;;
49548;SDS011;35450;44.518;7.466;2023-03-16T07:05:45;15.98;;;4.45;;
49548;SDS011;35450;44.518;7.466;2023-03-16T07:08:49;7.13;;;3.85;;
49548;SDS011;35450;44.518;7.466;2023-03-16T07:11:54;21.05;;;4.30;;
49548;SDS011;35450;44.518;7.466;2023-03-16T07:14:58;6.22;;;4.05;;
49548;SDS011;35450;44.518;7.466;2023-03-16T07:18:03;5.95;;;3.38;;
49548;SDS011;35450;44.518;7.466;2023-03-16T07:21:09;4.82;;;2.13;;
49548;SDS011;35450;44.518;7.466;2023-03-16T07:24:14;5.43;;;1.50;;
49548;SDS011;35450;44.518;7.466;2023-03-16T07:27:18;4.93;;;1.50;;
49548;SDS011;35450;44.518;7.466;2023-03-16T07:30:23;7.38;;;1.63;;
49548;SDS011;35450;44.518;7.466;2023-03-16T07:33:28;3.90;;;1.92;;
49548;SDS011;35450;44.518;7.466;2023-03-16T07:36:34;5.78;;;2.38;;
49548;SDS011;35450;44.518;7.466;2023-03-16T07:39:40;8.77;;;2.50;;
49548;SDS011;35450;44.518;7.466;2023-03-16T07:42:54;10.20;;;2.13;;
49548;SDS011;35450;44.518;7.466;2023-03-16T07:46:11;6.20;;;1.67;;
49548;SDS011;35450;44.518;7.466;2023-03-16T07:49:16;6.68;;;2.08;;
49548;SDS011;35450;44.518;7.466;2023-03-16T07:52:22;7.07;;;1.50;;
49548;SDS011;35450;44.518;7.466;2023-03-16T07:55:27;2.72;;;1.50;;
49548;SDS011;35450;44.518;7.466;2023-03-16T07:58:32;3.50;;;1.70;;
49548;SDS011;35450;44.518;7.466;2023-03-16T08:01:36;2.70;;;1.70;;
49548;SDS011;35450;44.518;7.466;2023-03-16T08:04:40;4.25;;;2.25;;
49548;SDS011;35450;44.518;7.466;2023-03-16T08:07:45;9.73;;;4.78;;
49548;SDS011;35450;44.518;7.466;2023-03-16T08:10:53;9.60;;;3.55;;
49548;SDS011;35450;44.518;7.466;2023-03-16T08:14:00;18.60;;;12.02;;
49548;SDS011;35450;44.518;7.466;2023-03-16T08:17:23;7.57;;;5.10;;
49548;SDS011;35450;44.518;7.466;2023-03-16T08:20:29;10.32;;;5.32;;
49548;SDS011;35450;44.518;7.466;2023-03-16T08:23:33;8.65;;;3.88;;
49548;SDS011;35450;44.518;7.466;2023-03-16T08:26:38;6.07;;;3.80;;
49548;SDS011;35450;44.518;7.466;2023-03-16T08:29:43;6.45;;;4.05;;
49548;SDS011;35450;44.518;7.466;2023-03-16T08:32:51;6.25;;;2.72;;
49548;SDS011;35450;44.518;7.466;2023-03-16T08:35:56;8.45;;;4.20;;
49548;SDS011;35450;44.518;7.466;2023-03-16T08:39:01;5.75;;;3.88;;
49548;SDS011;35450;44.518;7.466;2023-03-16T08:42:08;6.43;;;3.55;;
49548;SDS011;35450;44.518;7.466;2023-03-16T08:45:22;9.90;;;3.70;;
49548;SDS011;35450;44.518;7.466;2023-03-16T08:48:26;5.88;;;3.05;;
49548;SDS011;35450;44.518;7.466;2023-03-16T08:51:32;10.05;;;3.10;;
49548;SDS011;35450;44.518;7.466;2023-03-16T08:54:36;5.22;;;2.75;;
49548;SDS011;35450;44.518;7.466;2023-03-16T08:57:41;10.68;;;4.07;;
49548;SDS011;35450;44.518;7.466;2023-03-16T09:00:47;5.20;;;3.47;;
49548;SDS011;35450;44.518;7.466;2023-03-16T09:03:51;5.40;;;3.15;;
49548;SDS011;35450;44.518;7.466;2023-03-16T09:06:55;4.90;;;3.00;;
49548;SDS011;35450;44.518;7.466;2023-03-16T09:10:00;6.88;;;3.13;;
49548;SDS011;35450;44.518;7.466;2023-03-16T09:13:08;5.80;;;3.22;;
49548;SDS011;35450;44.518;7.466;2023-03-16T09:16:12;4.18;;;2.40;;
49548;SDS011;35450;44.518;7.466;2023-03-16T09:19:17;7.13;;;2.67;;
49548;SDS011;35450;44.518;7.466;2023-03-16T09:22:21;5.72;;;2.45;;
49548;SDS011;35450;44.518;7.466;2023-03-16T09:25:27;3.85;;;2.53;;
49548;SDS011;35450;44.518;7.466;2023-03-16T09:28:31;5.68;;;2.58;;
49548;SDS011;35450;44.518;7.466;2023-03-16T09:31:36;7.47;;;2.67;;
49548;SDS011;35450;44.518;7.466;2023-03-16T09:34:40;5.32;;;2.70;;
49548;SDS011;35450;44.518;7.466;2023-03-16T09:37:44;4.25;;;2.80;;
49548;SDS011;35450;44.518;7.466;2023-03-16T09:40:50;6.00;;;2.60;;
49548;SDS011;35450;44.518;7.466;2023-03-16T09:44:27;5.53;;;2.72;;
49548;SDS011;35450;44.518;7.466;2023-03-16T09:47:35;5.50;;;3.25;;
49548;SDS011;35450;44.518;7.466;2023-03-16T09:50:40;4.80;;;3.10;;
49548;SDS011;35450;44.518;7.466;2023-03-16T09:53:46;6.22;;;3.42;;
49548;SDS011;35450;44.518;7.466;2023-03-16T09:56:53;8.20;;;2.65;;
49548;SDS011;35450;44.518;7.466;2023-03-16T10:00:05;4.32;;;2.45;;
49548;SDS011;35450;44.518;7.466;2023-03-16T10:06:50;7.40;;;2.92;;
49548;SDS011;35450;44.518;7.466;2023-03-16T10:13:21;5.18;;;2.92;;
49548;SDS011;35450;44.518;7.466;2023-03-16T10:16:41;9.90;;;3.00;;
49548;SDS011;35450;44.518;7.466;2023-03-16T10:19:52;4.95;;;3.40;;
49548;SDS011;35450;44.518;7.466;2023-03-16T10:23:06;5.43;;;3.30;;
49548;SDS011;35450;44.518;7.466;2023-03-16T10:26:24;6.78;;;2.97;;
49548;SDS011;35450;44.518;7.466;2023-03-16T10:29:36;8.27;;;4.00;;
49548;SDS011;35450;44.518;7.466;2023-03-16T10:32:40;6.03;;;3.00;;
49548;SDS011;35450;44.518;7.466;2023-03-16T10:35:46;5.60;;;3.92;;
49548;SDS011;35450;44.518;7.466;2023-03-16T10:38:52;8.50;;;3.40;;
49548;SDS011;35450;44.518;7.466;2023-03-16T10:41:57;8.10;;;3.08;;
49548;SDS011;35450;44.518;7.466;2023-03-16T10:45:02;7.32;;;2.95;;
49548;SDS011;35450;44.518;7.466;2023-03-16T10:48:13;11.93;;;3.67;;
49548;SDS011;35450;44.518;7.466;2023-03-16T10:51:23;5.85;;;3.08;;
49548;SDS011;35450;44.518;7.466;2023-03-16T10:54:33;5.43;;;2.90;;
49548;SDS011;35450;44.518;7.466;2023-03-16T10:57:46;6.63;;;3.30;;
49548;SDS011;35450;44.518;7.466;2023-03-16T11:00:53;6.73;;;3.77;;
49548;SDS011;35450;44.518;7.466;2023-03-16T11:03:58;5.88;;;3.45;;
49548;SDS011;35450;44.518;7.466;2023-03-16T11:07:05;10.35;;;4.03;;
49548;SDS011;35450;44.518;7.466;2023-03-16T11:10:28;10.18;;;4.15;;
49548;SDS011;35450;44.518;7.466;2023-03-16T11:13:34;9.10;;;3.78;;
49548;SDS011;35450;44.518;7.466;2023-03-16T11:16:48;7.03;;;3.97;;
49548;SDS011;35450;44.518;7.466;2023-03-16T11:20:11;8.88;;;4.07;;
49548;SDS011;35450;44.518;7.466;2023-03-16T11:23:21;8.35;;;4.00;;
49548;SDS011;35450;44.518;7.466;2023-03-16T11:26:33;7.28;;;4.47;;
49548;SDS011;35450;44.518;7.466;2023-03-16T11:29:46;7.80;;;4.20;;
49548;SDS011;35450;44.518;7.466;2023-03-16T11:33:01;9.15;;;4.78;;
49548;SDS011;35450;44.518;7.466;2023-03-16T11:36:16;8.85;;;4.20;;
49548;SDS011;35450;44.518;7.466;2023-03-16T11:47:02;8.73;;;4.72;;
49548;SDS011;35450;44.518;7.466;2023-03-16T11:50:37;8.65;;;4.45;;
49548;SDS011;35450;44.518;7.466;2023-03-16T12:26:54;10.57;;;4.18;;
49548;SDS011;35450;44.518;7.466;2023-03-16T12:30:03;7.95;;;4.30;;
49548;SDS011;35450;44.518;7.466;2023-03-16T12:33:21;6.53;;;3.90;;
49548;SDS011;35450;44.518;7.466;2023-03-16T12:40:27;5.65;;;4.07;;
49548;SDS011;35450;44.518;7.466;2023-03-16T12:43:57;6.35;;;4.25;;
49548;SDS011;35450;44.518;7.466;2023-03-16T12:50:29;5.90;;;3.95;;
49548;SDS011;35450;44.518;7.466;2023-03-16T12:57:02;5.68;;;3.80;;
49548;SDS011;35450;44.518;7.466;2023-03-16T13:00:09;5.53;;;3.67;;
49548;SDS011;35450;44.518;7.466;2023-03-16T13:03:15;10.43;;;4.03;;
49548;SDS011;35450;44.518;7.466;2023-03-16T13:06:23;9.60;;;4.15;;
49548;SDS011;35450;44.518;7.466;2023-03-16T13:09:39;5.57;;;3.97;;
49548;SDS011;35450;44.518;7.466;2023-03-16T13:12:47;5.80;;;4.13;;
49548;SDS011;35450;44.518;7.466;2023-03-16T13:16:01;7.40;;;4.82;;
49548;SDS011;35450;44.518;7.466;2023-03-16T13:22:39;6.57;;;4.45;;
49548;SDS011;35450;44.518;7.466;2023-03-16T13:26:22;8.88;;;4.18;;
49548;SDS011;35450;44.518;7.466;2023-03-16T13:32:32;6.45;;;4.43;;
49548;SDS011;35450;44.518;7.466;2023-03-16T13:35:37;5.30;;;4.28;;
49548;SDS011;35450;44.518;7.466;2023-03-16T13:38:43;5.65;;;3.63;;
49548;SDS011;35450;44.518;7.466;2023-03-16T13:42:30;10.07;;;4.30;;
49548;SDS011;35450;44.518;7.466;2023-03-16T13:45:36;8.98;;;4.25;;
49548;SDS011;35450;44.518;7.466;2023-03-16T13:48:41;6.43;;;3.42;;
49548;SDS011;35450;44.518;7.466;2023-03-16T13:51:46;9.60;;;4.30;;
49548;SDS011;35450;44.518;7.466;2023-03-16T13:54:51;7.53;;;4.03;;
49548;SDS011;35450;44.518;7.466;2023-03-16T13:57:56;6.75;;;3.60;;
49548;SDS011;35450;44.518;7.466;2023-03-16T14:01:00;6.32;;;4.15;;
49548;SDS011;35450;44.518;7.466;2023-03-16T14:04:08;9.13;;;4.32;;
49548;SDS011;35450;44.518;7.466;2023-03-16T14:07:18;9.93;;;3.95;;
49548;SDS011;35450;44.518;7.466;2023-03-16T14:10:23;8.07;;;4.07;;
49548;SDS011;35450;44.518;7.466;2023-03-16T14:13:32;9.48;;;3.97;;
49548;SDS011;35450;44.518;7.466;2023-03-16T14:16:41;5.95;;;4.32;;
49548;SDS011;35450;44.518;7.466;2023-03-16T14:19:52;10.68;;;4.60;;
49548;SDS011;35450;44.518;7.466;2023-03-16T14:23:01;6.28;;;4.38;;
49548;SDS011;35450;44.518;7.466;2023-03-16T14:26:09;6.45;;;4.28;;
49548;SDS011;35450;44.518;7.466;2023-03-16T14:29:22;7.25;;;4.32;;
49548;SDS011;35450;44.518;7.466;2023-03-16T14:32:32;10.85;;;4.40;;
49548;SDS011;35450;44.518;7.466;2023-03-16T14:35:41;6.72;;;4.13;;
49548;SDS011;35450;44.518;7.466;2023-03-16T14:38:46;5.25;;;3.50;;
49548;SDS011;35450;44.518;7.466;2023-03-16T14:41:51;9.30;;;4.63;;
49548;SDS011;35450;44.518;7.466;2023-03-16T14:45:08;5.68;;;4.18;;
49548;SDS011;35450;44.518;7.466;2023-03-16T14:48:18;10.32;;;4.07;;
49548;SDS011;35450;44.518;7.466;2023-03-16T14:51:24;7.00;;;4.25;;
49548;SDS011;35450;44.518;7.466;2023-03-16T14:54:28;6.80;;;4.55;;
49548;SDS011;35450;44.518;7.466;2023-03-16T14:57:33;9.25;;;4.43;;
49548;SDS011;35450;44.518;7.466;2023-03-16T15:00:37;7.93;;;4.75;;
49548;SDS011;35450;44.518;7.466;2023-03-16T15:03:44;5.78;;;4.30;;
49548;SDS011;35450;44.518;7.466;2023-03-16T15:06:48;5.78;;;4.35;;
49548;SDS011;35450;44.518;7.466;2023-03-16T15:09:53;7.88;;;3.90;;
49548;SDS011;35450;44.518;7.466;2023-03-16T15:13:02;7.82;;;4.53;;
49548;SDS011;35450;44.518;7.466;2023-03-16T15:16:19;8.30;;;4.97;;
49548;SDS011;35450;44.518;7.466;2023-03-16T15:19:25;11.63;;;4.13;;
49548;SDS011;35450;44.518;7.466;2023-03-16T15:22:33;6.15;;;3.72;;
49548;SDS011;35450;44.518;7.466;2023-03-16T15:25:40;5.95;;;4.38;;
49548;SDS011;35450;44.518;7.466;2023-03-16T15:28:45;6.20;;;4.03;;
49548;SDS011;35450;44.518;7.466;2023-03-16T15:31:49;6.20;;;4.72;;
49548;SDS011;35450;44.518;7.466;2023-03-16T15:34:54;7.13;;;4.43;;
49548;SDS011;35450;44.518;7.466;2023-03-16T15:37:58;5.25;;;4.07;;
49548;SDS011;35450;44.518;7.466;2023-03-16T15:41:07;9.65;;;4.60;;
49548;SDS011;35450;44.518;7.466;2023-03-16T15:44:15;7.53;;;4.97;;
49548;SDS011;35450;44.518;7.466;2023-03-16T15:47:19;5.10;;;3.75;;
49548;SDS011;35450;44.518;7.466;2023-03-16T15:50:24;9.90;;;4.20;;
49548;SDS011;35450;44.518;7.466;2023-03-16T15:53:34;6.63;;;4.10;;
49548;SDS011;35450;44.518;7.466;2023-03-16T15:56:42;5.60;;;4.55;;
49548;SDS011;35450;44.518;7.466;2023-03-16T15:59:48;7.30;;;4.78;;
49548;SDS011;35450;44.518;7.466;2023-03-16T16:02:52;7.68;;;3.95;;
49548;SDS011;35450;44.518;7.466;2023-03-16T16:05:58;7.68;;;5.00;;
49548;SDS011;35450;44.518;7.466;2023-03-16T16:09:03;8.25;;;6.07;;
49548;SDS011;35450;44.518;7.466;2023-03-16T16:12:11;9.20;;;6.38;;
49548;SDS011;35450;44.518;7.466;2023-03-16T16:15:18;5.07;;;4.07;;
49548;SDS011;35450;44.518;7.466;2023-03-16T16:18:28;5.82;;;4.50;;
49548;SDS011;35450;44.518;7.466;2023-03-16T16:21:34;7.68;;;4.50;;
49548;SDS011;35450;44.518;7.466;2023-03-16T16:24:39;9.63;;;6.10;;
49548;SDS011;35450;44.518;7.466;2023-03-16T16:27:43;6.97;;;5.60;;
49548;SDS011;35450;44.518;7.466;2023-03-16T16:30:48;9.35;;;6.43;;
49548;SDS011;35450;44.518;7.466;2023-03-16T16:33:53;12.05;;;6.57;;
49548;SDS011;35450;44.518;7.466;2023-03-16T16:36:57;8.45;;;5.68;;
49548;SDS011;35450;44.518;7.466;2023-03-16T16:40:01;9.30;;;5.57;;
49548;SDS011;35450;44.518;7.466;2023-03-16T16:43:05;12.18;;;7.50;;
49548;SDS011;35450;44.518;7.466;2023-03-16T16:46:13;11.50;;;7.93;;
49548;SDS011;35450;44.518;7.466;2023-03-16T16:49:22;11.73;;;7.05;;
49548;SDS011;35450;44.518;7.466;2023-03-16T16:52:28;10.50;;;6.63;;
49548;SDS011;35450;44.518;7.466;2023-03-16T16:55:33;8.95;;;6.07;;
49548;SDS011;35450;44.518;7.466;2023-03-16T16:58:36;10.73;;;6.40;;
49548;SDS011;35450;44.518;7.466;2023-03-16T17:01:42;11.70;;;6.60;;
49548;SDS011;35450;44.518;7.466;2023-03-16T17:04:47;7.93;;;6.18;;
49548;SDS011;35450;44.518;7.466;2023-03-16T17:07:53;11.18;;;6.05;;
49548;SDS011;35450;44.518;7.466;2023-03-16T17:10:57;10.93;;;7.38;;
49548;SDS011;35450;44.518;7.466;2023-03-16T17:14:02;13.57;;;9.02;;
49548;SDS011;35450;44.518;7.466;2023-03-16T17:17:11;20.27;;;7.80;;
49548;SDS011;35450;44.518;7.466;2023-03-16T17:20:20;8.63;;;6.65;;
49548;SDS011;35450;44.518;7.466;2023-03-16T17:26:38;10.35;;;6.78;;
49548;SDS011;35450;44.518;7.466;2023-03-16T17:29:46;9.18;;;6.35;;
49548;SDS011;35450;44.518;7.466;2023-03-16T17:32:50;10.68;;;6.72;;
49548;SDS011;35450;44.518;7.466;2023-03-16T17:35:55;13.65;;;6.07;;
49548;SDS011;35450;44.518;7.466;2023-03-16T17:38:59;10.15;;;6.22;;
49548;SDS011;35450;44.518;7.466;2023-03-16T17:42:06;25.77;;;6.53;;
49548;SDS011;35450;44.518;7.466;2023-03-16T17:45:18;7.88;;;4.80;;
49548;SDS011;35450;44.518;7.466;2023-03-16T17:48:32;7.72;;;5.60;;
49548;SDS011;35450;44.518;7.466;2023-03-16T17:51:36;7.60;;;5.70;;
49548;SDS011;35450;44.518;7.466;2023-03-16T17:54:40;10.27;;;5.63;;
49548;SDS011;35450;44.518;7.466;2023-03-16T17:57:45;7.20;;;5.35;;
49548;SDS011;35450;44.518;7.466;2023-03-16T18:00:52;8.68;;;6.57;;
49548;SDS011;35450;44.518;7.466;2023-03-16T18:03:56;9.80;;;6.75;;
49548;SDS011;35450;44.518;7.466;2023-03-16T18:07:01;12.77;;;6.03;;
49548;SDS011;35450;44.518;7.466;2023-03-16T18:10:06;9.90;;;6.15;;
49548;SDS011;35450;44.518;7.466;2023-03-16T18:16:25;11.13;;;6.10;;
49548;SDS011;35450;44.518;7.466;2023-03-16T18:19:33;14.23;;;6.95;;
49548;SDS011;35450;44.518;7.466;2023-03-16T18:22:37;8.32;;;5.45;;
49548;SDS011;35450;44.518;7.466;2023-03-16T18:25:42;9.00;;;5.47;;
49548;SDS011;35450;44.518;7.466;2023-03-16T18:28:46;12.00;;;5.65;;
49548;SDS011;35450;44.518;7.466;2023-03-16T18:31:51;8.15;;;5.15;;
49548;SDS011;35450;44.518;7.466;2023-03-16T18:34:57;9.88;;;5.03;;
49548;SDS011;35450;44.518;7.466;2023-03-16T18:38:01;9.35;;;5.15;;
49548;SDS011;35450;44.518;7.466;2023-03-16T18:41:16;10.93;;;5.40;;
49548;SDS011;35450;44.518;7.466;2023-03-16T18:44:21;10.60;;;5.40;;
49548;SDS011;35450;44.518;7.466;2023-03-16T18:47:27;12.95;;;6.10;;
49548;SDS011;35450;44.518;7.466;2023-03-16T18:50:33;8.80;;;5.85;;
49548;SDS011;35450;44.518;7.466;2023-03-16T18:53:38;9.02;;;5.80;;
49548;SDS011;35450;44.518;7.466;2023-03-16T18:56:42;9.75;;;5.38;;
49548;SDS011;35450;44.518;7.466;2023-03-16T18:59:47;9.55;;;6.38;;
49548;SDS011;35450;44.518;7.466;2023-03-16T19:02:52;14.30;;;5.55;;
49548;SDS011;35450;44.518;7.466;2023-03-16T19:06:01;12.07;;;6.90;;
49548;SDS011;35450;44.518;7.466;2023-03-16T19:09:21;8.32;;;5.38;;
49548;SDS011;35450;44.518;7.466;2023-03-16T19:12:26;10.23;;;5.60;;
49548;SDS011;35450;44.518;7.466;2023-03-16T19:15:31;7.45;;;5.43;;
49548;SDS011;35450;44.518;7.466;2023-03-16T19:18:38;9.05;;;5.57;;
49548;SDS011;35450;44.518;7.466;2023-03-16T19:21:44;8.07;;;5.82;;
49548;SDS011;35450;44.518;7.466;2023-03-16T19:24:50;9.05;;;5.28;;
49548;SDS011;35450;44.518;7.466;2023-03-16T19:27:57;13.32;;;6.93;;
49548;SDS011;35450;44.518;7.466;2023-03-16T19:31:04;8.43;;;5.82;;
49548;SDS011;35450;44.518;7.466;2023-03-16T19:34:17;8.57;;;5.82;;
49548;SDS011;35450;44.518;7.466;2023-03-16T19:37:21;8.50;;;5.75;;
49548;SDS011;35450;44.518;7.466;2023-03-16T19:40:27;7.75;;;5.07;;
49548;SDS011;35450;44.518;7.466;2023-03-16T19:43:31;10.05;;;6.43;;
49548;SDS011;35450;44.518;7.466;2023-03-16T19:46:35;8.75;;;6.18;;
49548;SDS011;35450;44.518;7.466;2023-03-16T19:49:39;15.15;;;6.85;;
49548;SDS011;35450;44.518;7.466;2023-03-16T19:52:43;10.80;;;6.32;;
49548;SDS011;35450;44.518;7.466;2023-03-16T19:55:48;7.70;;;5.55;;
49548;SDS011;35450;44.518;7.466;2023-03-16T19:58:54;8.07;;;5.32;;
49548;SDS011;35450;44.518;7.466;2023-03-16T20:01:58;10.35;;;5.72;;